Time;durP1;ratioP1;P1;durP2;ratioP2;P2;SDS_P1;SDS_P2;PMS_P1;PMS_P2;Temp;Humidity;BMP_temperature;BMP_pressure;BME280_temperature;BME280_humidity;BME280_pressure;Samples;Min_cycle;Max_cycle;Signal;HPM_P1;HPM_P2
2021/07/31 00:00:13;;;;;;;6.07;3.97;;;18.50;86.40;;;;;;4969015;28;20022;-74
2021/07/31 00:02:38;;;;;;;4.53;3.40;;;18.50;86.50;;;;;;4965439;28;20089;-74
2021/07/31 00:05:07;;;;;;;5.40;4.03;;;18.50;86.10;;;;;;4966076;28;20206;-74
2021/07/31 00:07:33;;;;;;;5.40;3.90;;;18.50;85.80;;;;;;4968731;28;20026;-73
2021/07/31 00:09:59;;;;;;;4.60;3.65;;;18.50;85.90;;;;;;4968030;28;20437;-74
2021/07/31 00:12:25;;;;;;;6.47;4.00;;;18.50;85.40;;;;;;4964408;28;20033;-74
2021/07/31 00:14:51;;;;;;;5.22;3.53;;;18.50;85.50;;;;;;4965649;28;20034;-74
2021/07/31 00:17:17;;;;;;;5.32;3.67;;;18.50;85.10;;;;;;4964921;28;20069;-74
2021/07/31 00:19:42;;;;;;;4.50;3.47;;;18.50;84.90;;;;;;4968827;28;20050;-74
2021/07/31 00:22:08;;;;;;;4.50;3.42;;;18.40;84.80;;;;;;4969694;28;20520;-73
2021/07/31 00:24:34;;;;;;;4.82;3.20;;;18.40;85.00;;;;;;4971338;28;20452;-74
2021/07/31 00:26:59;;;;;;;5.30;3.72;;;18.40;85.40;;;;;;4967634;28;20054;-74
2021/07/31 00:29:25;;;;;;;4.82;3.72;;;18.40;85.00;;;;;;4969015;28;20019;-73
2021/07/31 00:31:50;;;;;;;5.18;3.25;;;18.40;85.20;;;;;;4967612;28;20035;-74
2021/07/31 00:34:16;;;;;;;4.03;3.03;;;18.40;84.50;;;;;;4965253;28;20121;-74
2021/07/31 00:36:42;;;;;;;4.35;3.08;;;18.40;84.60;;;;;;4968534;28;20074;-73
2021/07/31 00:39:08;;;;;;;4.40;3.17;;;18.40;84.60;;;;;;4971246;28;20501;-74
2021/07/31 00:41:33;;;;;;;4.20;3.00;;;18.30;84.80;;;;;;4966686;28;20574;-74
2021/07/31 00:43:59;;;;;;;7.80;3.72;;;18.40;84.60;;;;;;4969635;28;20112;-74
2021/07/31 00:46:26;;;;;;;4.22;3.03;;;18.40;85.20;;;;;;4965157;28;20049;-74
2021/07/31 00:48:52;;;;;;;4.60;3.25;;;18.40;85.10;;;;;;4967499;28;20033;-74
2021/07/31 00:51:19;;;;;;;5.55;3.22;;;18.40;85.20;;;;;;4968987;28;20038;-74
2021/07/31 00:53:45;;;;;;;4.40;3.25;;;18.40;84.90;;;;;;4968019;28;20027;-74
2021/07/31 00:56:14;;;;;;;5.32;3.33;;;18.40;84.80;;;;;;4959040;28;20023;-74
2021/07/31 00:58:40;;;;;;;4.90;3.47;;;18.40;84.70;;;;;;4969718;28;20041;-74
2021/07/31 01:01:05;;;;;;;5.82;3.60;;;18.40;84.50;;;;;;4968059;28;20054;-73
2021/07/31 01:03:31;;;;;;;4.18;2.95;;;18.30;84.70;;;;;;4970326;28;20030;-74
2021/07/31 01:05:57;;;;;;;7.35;3.67;;;18.30;84.80;;;;;;4969205;28;20026;-74
2021/07/31 01:08:24;;;;;;;4.38;3.35;;;18.30;84.90;;;;;;4971916;28;20034;-74
2021/07/31 01:10:49;;;;;;;5.00;2.83;;;18.30;85.30;;;;;;4959951;28;20035;-74
2021/07/31 01:13:16;;;;;;;4.93;3.65;;;18.30;85.50;;;;;;4972670;28;20096;-74
2021/07/31 01:16:02;;;;;;;5.78;3.22;;;18.30;85.60;;;;;;4971815;28;20027;-74
2021/07/31 01:18:27;;;;;;;4.50;3.13;;;18.30;85.90;;;;;;4964139;28;20085;-74
2021/07/31 01:20:53;;;;;;;4.45;3.10;;;18.30;85.80;;;;;;4966530;28;20462;-74
2021/07/31 01:23:19;;;;;;;5.63;3.30;;;18.40;85.90;;;;;;4966635;28;20062;-74
2021/07/31 01:25:45;;;;;;;7.15;3.17;;;18.30;86.00;;;;;;4994498;28;20031;-74
2021/07/31 01:28:11;;;;;;;4.32;3.40;;;18.40;85.80;;;;;;4956662;28;20049;-73
2021/07/31 01:30:37;;;;;;;6.97;3.38;;;18.40;86.30;;;;;;4965935;28;20078;-73
2021/07/31 01:33:02;;;;;;;4.82;3.03;;;18.40;86.50;;;;;;4968821;28;20069;-74
2021/07/31 01:35:28;;;;;;;3.78;3.35;;;18.40;86.40;;;;;;4968886;28;20031;-74
2021/07/31 01:37:54;;;;;;;4.82;3.47;;;18.40;86.30;;;;;;4967117;28;20555;-74
2021/07/31 01:40:20;;;;;;;4.57;3.47;;;18.40;86.70;;;;;;4967747;28;20477;-74
2021/07/31 01:42:45;;;;;;;6.68;3.65;;;18.40;86.10;;;;;;4969630;28;20058;-74
2021/07/31 01:45:11;;;;;;;4.90;3.47;;;18.40;86.50;;;;;;4959105;28;20101;-74
2021/07/31 01:47:37;;;;;;;5.68;3.33;;;18.40;86.30;;;;;;4965759;28;20034;-74
2021/07/31 01:50:03;;;;;;;4.13;3.35;;;18.40;86.60;;;;;;4964067;28;20043;-74
2021/07/31 01:52:29;;;;;;;3.60;3.03;;;18.40;86.70;;;;;;4964011;28;20170;-74
2021/07/31 01:54:54;;;;;;;5.15;3.35;;;18.40;86.20;;;;;;4968540;28;20101;-75
2021/07/31 01:57:20;;;;;;;4.32;3.20;;;18.30;86.40;;;;;;4965475;28;20402;-75
2021/07/31 01:59:45;;;;;;;4.95;3.50;;;18.40;86.30;;;;;;4960020;28;20046;-75
2021/07/31 02:02:11;;;;;;;4.63;3.17;;;18.40;86.30;;;;;;4947528;28;20596;-75
2021/07/31 02:04:37;;;;;;;4.57;3.40;;;18.40;86.50;;;;;;4942878;28;20038;-75
2021/07/31 02:07:03;;;;;;;4.57;3.30;;;18.40;86.30;;;;;;4944373;28;20394;-74
2021/07/31 02:09:29;;;;;;;6.63;3.58;;;18.40;86.80;;;;;;4948015;28;20035;-75
2021/07/31 02:11:54;;;;;;;5.60;3.50;;;18.40;86.70;;;;;;4936155;28;20399;-74
2021/07/31 02:14:20;;;;;;;3.17;2.85;;;18.40;86.70;;;;;;4944984;28;20032;-75
2021/07/31 02:16:46;;;;;;;4.78;3.30;;;18.40;86.50;;;;;;4941499;28;20042;-75
2021/07/31 02:19:12;;;;;;;5.32;3.30;;;18.40;86.40;;;;;;4950581;28;20015;-75
2021/07/31 02:21:38;;;;;;;5.45;3.28;;;18.40;87.00;;;;;;4941171;28;20058;-75
2021/07/31 02:24:03;;;;;;;5.85;3.78;;;18.40;87.30;;;;;;4945028;28;20410;-74
2021/07/31 02:26:30;;;;;;;6.47;3.45;;;18.40;86.80;;;;;;4949651;28;20396;-74
2021/07/31 02:28:56;;;;;;;5.03;3.10;;;18.40;86.90;;;;;;4944598;28;20050;-74
2021/07/31 02:31:21;;;;;;;5.95;3.67;;;18.40;86.70;;;;;;4950797;28;20031;-75
2021/07/31 02:33:47;;;;;;;5.35;3.50;;;18.40;86.50;;;;;;4968176;28;20106;-75
2021/07/31 02:36:13;;;;;;;5.68;3.40;;;18.40;86.60;;;;;;4970488;28;20480;-76
2021/07/31 02:38:38;;;;;;;6.20;3.50;;;18.40;86.90;;;;;;4970819;28;20514;-74
2021/07/31 02:41:05;;;;;;;5.97;3.63;;;18.40;86.60;;;;;;4966614;28;20038;-74
2021/07/31 02:43:30;;;;;;;3.95;3.28;;;18.40;86.70;;;;;;4989082;28;20458;-75
2021/07/31 02:46:05;;;;;;;4.97;3.33;;;18.40;87.50;;;;;;4961503;28;20790;-75
2021/07/31 02:48:35;;;;;;;7.00;3.90;;;18.40;87.60;;;;;;4955307;28;20031;-75
2021/07/31 02:51:05;;;;;;;5.07;3.80;;;18.40;86.90;;;;;;4961990;28;20148;-75
2021/07/31 02:53:31;;;;;;;6.10;3.83;;;18.40;87.10;;;;;;4967768;28;20050;-74
2021/07/31 02:55:57;;;;;;;4.60;3.53;;;18.40;87.00;;;;;;4965700;28;20121;-74
2021/07/31 02:58:23;;;;;;;4.03;3.30;;;18.40;87.10;;;;;;4973428;28;20030;-74
2021/07/31 03:00:49;;;;;;;6.32;4.05;;;18.40;87.20;;;;;;4970973;28;20114;-75
2021/07/31 03:03:14;;;;;;;5.82;3.50;;;18.40;87.10;;;;;;4969105;28;20831;-75
2021/07/31 03:05:40;;;;;;;6.57;3.83;;;18.30;86.90;;;;;;4971898;28;20760;-74
2021/07/31 03:08:06;;;;;;;6.03;3.45;;;18.30;87.00;;;;;;4970422;28;20525;-74
2021/07/31 03:10:32;;;;;;;6.07;4.10;;;18.30;86.90;;;;;;4960538;28;20035;-75
2021/07/31 03:12:58;;;;;;;5.55;3.67;;;18.30;87.00;;;;;;4953720;28;20572;-74
2021/07/31 03:15:23;;;;;;;6.13;3.90;;;18.30;86.90;;;;;;4962311;28;20113;-75
2021/07/31 03:17:49;;;;;;;6.85;3.92;;;18.20;86.80;;;;;;4969750;28;20494;-75
2021/07/31 03:20:17;;;;;;;5.65;3.33;;;18.20;87.00;;;;;;4956126;28;20046;-74
2021/07/31 03:22:42;;;;;;;7.03;3.67;;;18.20;87.00;;;;;;4970875;28;20022;-74
2021/07/31 03:25:08;;;;;;;5.75;3.65;;;18.20;86.70;;;;;;4970135;28;20078;-74
2021/07/31 03:27:34;;;;;;;4.38;3.28;;;18.10;86.40;;;;;;4962642;28;20125;-74
2021/07/31 03:30:02;;;;;;;5.25;3.95;;;18.20;86.50;;;;;;4968399;28;20110;-74
2021/07/31 03:32:27;;;;;;;3.80;3.25;;;18.10;86.60;;;;;;4965550;28;20034;-74
2021/07/31 03:34:53;;;;;;;4.70;3.45;;;18.10;86.40;;;;;;4957621;28;20545;-74
2021/07/31 03:37:19;;;;;;;6.20;3.55;;;18.10;86.50;;;;;;4961754;28;20022;-74
2021/07/31 03:39:45;;;;;;;4.57;3.45;;;18.10;86.50;;;;;;4966035;28;20105;-74
2021/07/31 03:42:10;;;;;;;6.20;3.50;;;18.10;86.60;;;;;;4963284;28;20608;-74
2021/07/31 03:44:36;;;;;;;4.55;3.42;;;18.00;86.60;;;;;;4965035;28;20015;-75
2021/07/31 03:47:02;;;;;;;5.47;3.63;;;18.00;86.70;;;;;;4966134;28;20041;-74
2021/07/31 03:49:30;;;;;;;6.00;3.75;;;18.00;86.70;;;;;;4962746;28;20018;-75
2021/07/31 03:51:56;;;;;;;4.32;3.30;;;18.00;87.00;;;;;;4969720;28;20042;-74
2021/07/31 03:54:22;;;;;;;4.38;3.40;;;17.90;87.00;;;;;;4964730;28;20117;-74
2021/07/31 03:56:47;;;;;;;6.75;3.70;;;18.00;87.00;;;;;;4972225;28;20105;-74
2021/07/31 03:59:13;;;;;;;6.55;3.78;;;18.00;87.30;;;;;;4958035;28;20090;-74
2021/07/31 04:01:39;;;;;;;5.35;3.85;;;18.00;87.10;;;;;;4956416;28;20031;-73
2021/07/31 04:04:05;;;;;;;4.13;3.40;;;18.00;87.00;;;;;;4969131;28;20070;-73
2021/07/31 04:06:30;;;;;;;7.18;3.78;;;18.00;88.00;;;;;;4965282;28;20509;-73
2021/07/31 04:08:56;;;;;;;7.43;3.35;;;17.90;88.80;;;;;;4959653;28;20035;-73
2021/07/31 04:11:21;;;;;;;5.95;4.30;;;17.90;88.50;;;;;;4963470;28;20050;-73
2021/07/31 04:13:47;;;;;;;6.45;3.85;;;17.90;88.40;;;;;;4966211;28;20031;-74
2021/07/31 04:16:13;;;;;;;5.95;4.13;;;17.90;88.50;;;;;;4971281;28;20033;-73
2021/07/31 04:18:38;;;;;;;5.13;3.63;;;17.90;88.60;;;;;;4959006;28;20726;-73
2021/07/31 04:21:06;;;;;;;5.60;3.97;;;18.00;88.20;;;;;;4961778;28;20092;-74
2021/07/31 04:23:31;;;;;;;4.85;3.40;;;18.20;87.10;;;;;;4957649;28;20049;-74
2021/07/31 04:25:57;;;;;;;4.45;3.85;;;18.30;86.60;;;;;;4957262;28;21296;-74
2021/07/31 04:28:22;;;;;;;4.82;3.40;;;18.30;86.10;;;;;;4959424;28;20073;-74
2021/07/31 04:30:48;;;;;;;4.63;3.50;;;18.20;86.20;;;;;;4966603;28;20043;-74
2021/07/31 04:33:14;;;;;;;6.00;4.25;;;18.20;86.80;;;;;;4968583;28;20046;-75
2021/07/31 04:35:40;;;;;;;5.03;3.50;;;18.20;87.10;;;;;;4967467;28;20023;-75
2021/07/31 04:38:06;;;;;;;5.75;4.30;;;18.20;86.50;;;;;;4969760;28;20101;-74
2021/07/31 04:40:32;;;;;;;4.93;3.42;;;18.20;86.60;;;;;;4963282;28;20145;-74
2021/07/31 04:42:58;;;;;;;4.95;3.60;;;18.30;87.30;;;;;;4966690;28;20054;-75
2021/07/31 04:45:24;;;;;;;8.30;3.83;;;18.20;87.30;;;;;;4962179;28;20058;-75
2021/07/31 04:47:49;;;;;;;6.32;3.67;;;18.10;87.10;;;;;;4970895;28;22006;-74
2021/07/31 04:50:15;;;;;;;6.43;3.83;;;18.10;87.30;;;;;;4966969;28;20030;-75
2021/07/31 04:52:41;;;;;;;4.93;3.90;;;18.10;87.80;;;;;;4963881;28;20101;-75
2021/07/31 04:55:07;;;;;;;5.07;3.90;;;18.10;88.10;;;;;;4960788;28;20061;-75
2021/07/31 04:57:33;;;;;;;7.60;3.58;;;18.20;87.40;;;;;;4957683;28;20042;-74
2021/07/31 04:59:59;;;;;;;6.40;3.53;;;18.30;87.90;;;;;;4962009;28;20037;-74
2021/07/31 05:02:24;;;;;;;5.28;3.30;;;18.30;87.90;;;;;;4964179;28;20398;-74
2021/07/31 05:04:50;;;;;;;4.78;3.65;;;18.30;88.10;;;;;;4966072;28;20023;-75
2021/07/31 05:07:16;;;;;;;7.00;3.65;;;18.40;88.00;;;;;;4963865;28;20031;-74
2021/07/31 05:09:41;;;;;;;5.40;3.40;;;18.40;87.60;;;;;;4968660;28;20038;-74
2021/07/31 05:12:07;;;;;;;7.70;3.72;;;18.40;86.80;;;;;;4969849;28;20062;-74
2021/07/31 05:14:33;;;;;;;6.47;4.10;;;18.40;87.10;;;;;;4970730;28;20034;-74
2021/07/31 05:16:58;;;;;;;6.63;3.65;;;18.40;87.20;;;;;;4956884;28;20030;-74
2021/07/31 05:19:24;;;;;;;5.38;3.88;;;18.40;87.10;;;;;;4957111;28;20031;-74
2021/07/31 05:21:54;;;;;;;5.88;3.83;;;18.50;87.20;;;;;;4963313;28;20181;-75
2021/07/31 05:24:20;;;;;;;5.10;3.42;;;18.50;87.30;;;;;;4970914;28;20026;-75
2021/07/31 05:26:46;;;;;;;7.38;4.13;;;18.50;87.30;;;;;;4964973;28;20030;-75
2021/07/31 05:29:12;;;;;;;6.03;4.20;;;18.50;87.30;;;;;;4968605;28;20517;-74
2021/07/31 05:31:37;;;;;;;8.93;4.22;;;18.50;87.20;;;;;;4953967;28;20611;-75
2021/07/31 05:34:03;;;;;;;6.50;3.75;;;18.60;86.80;;;;;;4964616;28;20053;-75
2021/07/31 05:36:30;;;;;;;6.03;4.18;;;18.60;86.90;;;;;;4959722;28;20574;-75
2021/07/31 05:38:56;;;;;;;5.37;3.90;;;18.60;86.90;;;;;;4967069;28;20031;-74
2021/07/31 05:41:22;;;;;;;5.13;3.88;;;18.60;86.60;;;;;;4971514;28;20158;-75
2021/07/31 05:43:49;;;;;;;5.45;3.90;;;18.60;87.00;;;;;;4971350;28;20066;-75
2021/07/31 05:46:18;;;;;;;7.13;3.95;;;18.50;86.80;;;;;;4966052;28;20033;-74
2021/07/31 05:48:49;;;;;;;5.82;4.03;;;18.50;87.00;;;;;;4975228;28;20086;-71
2021/07/31 05:51:15;;;;;;;4.72;3.60;;;18.50;87.10;;;;;;4965250;28;20046;-73
2021/07/31 05:53:41;;;;;;;5.43;3.78;;;18.50;87.70;;;;;;4966423;28;20033;-73
2021/07/31 05:56:17;;;;;;;5.18;3.40;;;18.40;87.40;;;;;;4973079;28;20035;-74
2021/07/31 05:58:43;;;;;;;5.70;3.65;;;18.50;87.50;;;;;;4971421;28;20030;-72
2021/07/31 06:01:14;;;;;;;5.30;3.35;;;18.50;86.90;;;;;;4965492;28;21181;-72
2021/07/31 06:03:40;;;;;;;5.30;4.05;;;18.40;87.20;;;;;;4959128;28;20517;-73
2021/07/31 06:06:06;;;;;;;6.00;3.85;;;18.40;86.60;;;;;;4955930;28;20038;-73
2021/07/31 06:08:32;;;;;;;8.10;4.13;;;18.40;87.30;;;;;;4974009;28;20038;-73
2021/07/31 06:11:02;;;;;;;6.10;3.83;;;18.40;87.10;;;;;;4969851;28;20036;-75
2021/07/31 06:13:28;;;;;;;4.57;3.20;;;18.40;87.20;;;;;;4968763;28;20031;-74
2021/07/31 06:15:54;;;;;;;6.07;3.10;;;18.30;85.70;;;;;;4970017;28;20030;-74
2021/07/31 06:18:20;;;;;;;5.03;2.45;;;18.30;84.00;;;;;;4968788;28;20038;-74
2021/07/31 06:20:46;;;;;;;4.45;2.50;;;18.20;84.10;;;;;;4972205;28;20030;-74
2021/07/31 06:23:12;;;;;;;3.92;3.08;;;18.20;83.70;;;;;;4973476;28;20081;-74
2021/07/31 06:25:38;;;;;;;4.63;2.25;;;18.10;83.30;;;;;;4967705;28;20423;-74
2021/07/31 06:28:04;;;;;;;4.65;2.58;;;18.10;81.40;;;;;;4972019;28;20022;-74
2021/07/31 06:30:30;;;;;;;6.25;2.60;;;18.10;81.30;;;;;;4964373;28;20033;-74
2021/07/31 06:32:56;;;;;;;2.35;2.10;;;18.20;82.70;;;;;;4969585;28;20026;-75
2021/07/31 06:35:21;;;;;;;3.67;2.42;;;18.20;82.40;;;;;;4971675;28;20023;-75
2021/07/31 06:37:47;;;;;;;3.65;2.30;;;18.30;82.00;;;;;;4970705;28;20062;-74
2021/07/31 06:40:13;;;;;;;3.92;2.30;;;18.30;81.10;;;;;;4968113;28;20158;-75
2021/07/31 06:42:39;;;;;;;4.28;2.80;;;18.30;81.80;;;;;;4984599;28;20026;-74
2021/07/31 06:45:06;;;;;;;5.07;2.55;;;18.30;81.80;;;;;;4964741;28;20030;-75
2021/07/31 06:47:32;;;;;;;2.08;1.85;;;18.40;82.90;;;;;;4966362;28;20038;-75
2021/07/31 06:49:57;;;;;;;3.78;2.13;;;18.40;80.70;;;;;;4966864;28;20052;-75
2021/07/31 06:52:23;;;;;;;4.25;2.30;;;18.50;81.50;;;;;;4969845;28;20027;-75
2021/07/31 06:54:48;;;;;;;2.58;1.88;;;18.60;81.00;;;;;;4971412;28;21599;-74
2021/07/31 06:57:14;;;;;;;4.22;2.17;;;18.70;79.50;;;;;;4964259;28;20023;-75
2021/07/31 06:59:40;;;;;;;3.08;1.80;;;18.80;78.60;;;;;;4960514;28;20557;-75
2021/07/31 07:02:06;;;;;;;3.22;1.60;;;18.80;76.70;;;;;;4967082;28;20067;-75
2021/07/31 07:04:32;;;;;;;3.40;2.00;;;18.80;75.50;;;;;;4963054;28;20035;-75
2021/07/31 07:07:01;;;;;;;2.30;1.55;;;18.90;73.60;;;;;;4967747;28;20081;-75
2021/07/31 07:09:27;;;;;;;6.40;1.70;;;18.90;74.90;;;;;;4970771;28;20034;-75
2021/07/31 07:11:52;;;;;;;2.05;1.50;;;18.90;70.40;;;;;;4964495;28;20121;-73
2021/07/31 07:14:18;;;;;;;4.50;1.52;;;18.90;72.70;;;;;;4965819;28;20910;-75
2021/07/31 07:16:44;;;;;;;1.88;1.40;;;19.00;72.30;;;;;;4996249;28;20038;-75
2021/07/31 07:19:10;;;;;;;2.88;1.50;;;19.10;69.70;;;;;;4966085;28;20023;-74
2021/07/31 07:21:36;;;;;;;3.83;1.70;;;19.10;72.30;;;;;;4965478;28;20031;-75
2021/07/31 07:24:02;;;;;;;1.52;1.40;;;19.10;71.50;;;;;;4971394;28;20019;-75
2021/07/31 07:26:28;;;;;;;2.60;1.50;;;19.10;71.20;;;;;;4973090;28;20035;-75
2021/07/31 07:28:53;;;;;;;1.73;1.20;;;19.10;70.70;;;;;;4970433;28;20146;-74
2021/07/31 07:31:23;;;;;;;2.00;1.30;;;19.10;69.50;;;;;;4964134;28;20126;-75
2021/07/31 07:33:56;;;;;;;4.57;1.70;;;19.10;69.80;;;;;;4968850;28;20037;-72
2021/07/31 07:36:21;;;;;;;5.50;1.58;;;19.10;70.00;;;;;;4966720;28;20018;-75
2021/07/31 07:38:47;;;;;;;1.40;1.30;;;19.10;71.40;;;;;;4967657;28;20394;-75
2021/07/31 07:41:14;;;;;;;2.50;1.60;;;19.10;71.80;;;;;;4968535;28;20027;-75
2021/07/31 07:43:40;;;;;;;4.15;1.50;;;19.20;71.40;;;;;;4968918;28;20037;-75
2021/07/31 07:46:06;;;;;;;3.58;1.50;;;19.20;70.60;;;;;;4977386;28;20034;-76
2021/07/31 07:48:32;;;;;;;1.85;1.52;;;19.20;71.30;;;;;;4973246;28;20168;-75
2021/07/31 07:51:01;;;;;;;3.22;1.40;;;19.30;67.50;;;;;;4994592;28;20035;-75
2021/07/31 07:53:27;;;;;;;1.75;1.50;;;19.40;69.80;;;;;;4973045;28;20027;-75
2021/07/31 07:55:53;;;;;;;3.00;2.03;;;19.50;70.30;;;;;;4970071;28;20027;-75
2021/07/31 07:58:19;;;;;;;5.95;1.63;;;19.60;67.90;;;;;;4972297;28;20027;-74
2021/07/31 08:00:45;;;;;;;3.08;2.00;;;19.70;68.00;;;;;;4975657;28;20035;-74
2021/07/31 08:03:12;;;;;;;2.28;1.25;;;19.90;70.60;;;;;;4974085;28;20034;-76
2021/07/31 08:05:39;;;;;;;4.38;1.50;;;20.00;69.30;;;;;;4970996;28;20123;-75
2021/07/31 08:08:06;;;;;;;5.45;1.63;;;20.10;65.60;;;;;;4972322;28;20049;-75
2021/07/31 08:10:32;;;;;;;5.85;1.90;;;20.20;66.40;;;;;;4968112;28;20085;-76
2021/07/31 08:13:01;;;;;;;3.20;1.80;;;20.30;67.80;;;;;;4975898;28;20034;-75
2021/07/31 08:15:30;;;;;;;3.28;1.60;;;20.40;67.10;;;;;;4968825;28;20035;-75
2021/07/31 08:17:56;;;;;;;3.55;1.85;;;20.50;67.70;;;;;;4962016;28;20054;-74
2021/07/31 08:20:25;;;;;;;6.03;1.90;;;20.50;69.10;;;;;;4963104;28;20030;-75
2021/07/31 08:22:51;;;;;;;9.30;2.13;;;20.40;67.70;;;;;;4963558;28;20026;-75
2021/07/31 08:25:17;;;;;;;3.90;1.77;;;20.50;69.50;;;;;;4964014;28;20211;-75
2021/07/31 08:27:42;;;;;;;4.53;1.75;;;20.50;69.70;;;;;;4971635;28;20054;-74
2021/07/31 08:30:09;;;;;;;3.65;2.00;;;20.40;67.30;;;;;;4968801;28;20072;-75
2021/07/31 08:32:35;;;;;;;4.15;2.30;;;20.40;66.90;;;;;;4962831;28;20502;-75
2021/07/31 08:35:01;;;;;;;3.38;2.13;;;20.20;68.40;;;;;;4969626;28;20118;-75
2021/07/31 08:37:27;;;;;;;5.10;2.22;;;20.20;69.40;;;;;;4972054;28;20045;-75
2021/07/31 08:39:54;;;;;;;3.95;1.85;;;20.10;69.20;;;;;;4974782;28;20058;-75
2021/07/31 08:42:19;;;;;;;4.63;2.15;;;20.10;69.00;;;;;;4967471;28;20160;-75
2021/07/31 08:44:45;;;;;;;2.35;1.92;;;20.00;67.80;;;;;;4962205;28;20490;-75
2021/07/31 08:47:13;;;;;;;2.75;1.90;;;20.00;69.80;;;;;;4961037;28;20065;-75
2021/07/31 08:49:43;;;;;;;2.17;1.92;;;20.20;69.50;;;;;;4964906;28;20036;-75
2021/07/31 08:52:09;;;;;;;3.72;1.88;;;20.30;69.60;;;;;;4966270;28;20033;-75
2021/07/31 08:54:39;;;;;;;4.28;2.40;;;20.40;69.50;;;;;;4969295;28;20505;-75
2021/07/31 08:57:06;;;;;;;3.50;2.08;;;20.50;71.00;;;;;;4976037;28;20039;-75
2021/07/31 08:59:32;;;;;;;3.77;2.00;;;20.70;68.90;;;;;;4972534;28;20038;-75
2021/07/31 09:01:58;;;;;;;3.13;1.80;;;20.80;68.60;;;;;;4968855;28;20288;-74
2021/07/31 09:04:24;;;;;;;4.07;2.08;;;20.80;67.40;;;;;;4968142;28;20034;-76
2021/07/31 09:06:50;;;;;;;5.68;2.13;;;20.90;67.50;;;;;;4960960;28;20035;-75
2021/07/31 09:09:28;;;;;;;3.47;2.15;;;21.00;66.60;;;;;;4965508;28;20144;-75
2021/07/31 09:12:04;;;;;;;2.63;2.15;;;21.00;69.10;;;;;;4960894;28;20109;-75
2021/07/31 09:14:30;;;;;;;4.93;2.30;;;21.10;67.80;;;;;;4958846;28;20185;-75
2021/07/31 09:16:57;;;;;;;4.03;2.70;;;21.20;67.20;;;;;;4966829;28;20030;-75
2021/07/31 09:19:24;;;;;;;4.82;2.28;;;21.20;65.80;;;;;;4958582;28;20558;-75
2021/07/31 09:21:51;;;;;;;5.05;2.30;;;21.20;68.00;;;;;;4961488;28;20031;-76
2021/07/31 09:24:21;;;;;;;4.32;2.33;;;21.20;66.90;;;;;;4963271;28;20038;-75
2021/07/31 09:26:55;;;;;;;5.03;2.08;;;21.10;67.50;;;;;;4976784;28;20489;-76
2021/07/31 09:29:36;;;;;;;3.63;2.60;;;21.20;67.20;;;;;;4964808;28;20100;-74
2021/07/31 09:32:05;;;;;;;4.32;2.58;;;21.20;66.80;;;;;;4967822;28;20031;-74
2021/07/31 09:34:47;;;;;;;4.68;3.05;;;21.10;65.80;;;;;;4955619;28;20035;-75
2021/07/31 09:37:23;;;;;;;3.25;2.70;;;21.10;68.10;;;;;;4960682;28;20501;-75
2021/07/31 09:39:53;;;;;;;7.55;3.00;;;21.20;66.90;;;;;;4963386;28;20402;-75
2021/07/31 09:42:38;;;;;;;3.47;2.70;;;21.10;65.30;;;;;;4979037;28;20034;-74
2021/07/31 09:45:15;;;;;;;2.70;2.20;;;21.00;65.60;;;;;;4966941;28;20766;-73
2021/07/31 09:48:06;;;;;;;4.72;2.30;;;21.20;66.80;;;;;;4998493;28;20031;-75
2021/07/31 09:50:41;;;;;;;2.88;2.33;;;21.40;67.50;;;;;;4968814;28;20035;-74
2021/07/31 09:53:12;;;;;;;2.53;2.20;;;21.70;66.50;;;;;;4969363;28;20031;-74
2021/07/31 09:55:47;;;;;;;3.72;2.40;;;21.70;62.30;;;;;;4973178;28;20070;-73
2021/07/31 09:58:14;;;;;;;3.88;2.60;;;21.80;62.00;;;;;;4964418;28;20031;-75
2021/07/31 10:00:42;;;;;;;2.85;2.20;;;21.90;62.80;;;;;;4967559;28;20121;-74
2021/07/31 10:03:12;;;;;;;;;;;21.90;61.70;;;;;;4968529;28;20034;-74
2021/07/31 10:05:40;;;;;;;4.10;2.20;;;22.00;63.30;;;;;;4969333;28;19921;-74
2021/07/31 10:08:14;;;;;;;;;;;22.00;61.60;;;;;;4969615;28;20098;-74
2021/07/31 10:10:41;;;;;;;3.35;2.10;;;22.00;62.10;;;;;;4969165;28;19937;-75
2021/07/31 10:13:07;;;;;;;5.72;3.25;;;21.80;61.80;;;;;;4968254;28;20067;-74
2021/07/31 10:15:33;;;;;;;3.00;2.65;;;21.80;63.80;;;;;;4969599;28;20379;-74
2021/07/31 10:18:08;;;;;;;3.78;2.60;;;21.70;64.10;;;;;;4973486;28;20121;-75
2021/07/31 10:20:34;;;;;;;7.15;2.75;;;21.50;62.90;;;;;;4952247;28;20066;-75
2021/07/31 10:23:00;;;;;;;3.05;2.75;;;21.60;63.80;;;;;;4965289;28;20027;-75
2021/07/31 10:25:26;;;;;;;8.55;2.75;;;21.70;64.60;;;;;;4964759;28;20031;-75
2021/07/31 10:28:12;;;;;;;3.00;2.30;;;21.80;66.20;;;;;;4964980;28;20034;-73
2021/07/31 10:30:39;;;;;;;3.08;2.40;;;22.00;63.70;;;;;;4967608;28;20039;-75
2021/07/31 10:33:44;;;;;;;5.07;2.73;;;22.10;64.10;;;;;;4968913;28;20440;-74
2021/07/31 10:36:35;;;;;;;5.47;2.42;;;22.20;61.70;;;;;;4969033;28;20045;-73
2021/07/31 10:39:26;;;;;;;3.33;2.50;;;22.40;62.30;;;;;;4968568;28;20688;-74
2021/07/31 10:42:00;;;;;;;3.92;2.20;;;22.40;62.60;;;;;;4962368;28;20027;-74
2021/07/31 10:44:27;;;;;;;4.30;2.78;;;22.50;65.00;;;;;;4967572;28;20034;-74
2021/07/31 10:47:20;;;;;;;3.28;2.60;;;22.40;62.50;;;;;;4967095;28;20026;-75
2021/07/31 10:49:47;;;;;;;3.40;2.50;;;22.40;63.90;;;;;;4970344;28;20035;-75
2021/07/31 10:52:51;;;;;;;4.50;2.80;;;22.40;64.70;;;;;;4966804;28;20085;-73
2021/07/31 10:55:18;;;;;;;4.03;2.35;;;22.40;63.10;;;;;;4981439;28;20027;-75
2021/07/31 10:57:53;;;;;;;3.97;2.38;;;22.40;63.70;;;;;;4998560;28;20062;-73
2021/07/31 11:00:43;;;;;;;4.55;2.42;;;22.40;62.60;;;;;;4962980;28;20058;-76
2021/07/31 11:03:15;;;;;;;6.30;2.30;;;22.30;61.50;;;;;;4961680;28;20034;-75
2021/07/31 11:05:58;;;;;;;4.65;2.67;;;22.30;62.60;;;;;;4966507;28;20077;-74
2021/07/31 11:08:31;;;;;;;3.92;2.35;;;22.20;62.70;;;;;;4964712;28;20043;-74
2021/07/31 11:11:33;;;;;;;6.13;2.80;;;22.10;64.20;;;;;;4959903;28;20160;-75
2021/07/31 11:13:59;;;;;;;2.70;2.10;;;22.10;62.80;;;;;;4954024;28;20533;-75
2021/07/31 11:16:26;;;;;;;4.28;2.35;;;22.00;64.50;;;;;;4956954;28;20042;-75
2021/07/31 11:18:58;;;;;;;2.70;2.50;;;22.10;65.60;;;;;;4961905;28;20029;-75
2021/07/31 11:21:33;;;;;;;3.65;2.25;;;22.20;64.90;;;;;;4970783;28;20027;-74
2021/07/31 11:24:07;;;;;;;3.35;2.00;;;22.10;62.30;;;;;;4960911;28;20382;-74
2021/07/31 11:26:50;;;;;;;4.43;2.60;;;22.10;62.70;;;;;;4959828;28;20034;-73
2021/07/31 11:29:16;;;;;;;2.95;2.40;;;22.20;64.30;;;;;;4969303;28;20057;-75
2021/07/31 11:31:55;;;;;;;3.28;2.65;;;22.30;61.80;;;;;;4956941;28;20526;-75
2021/07/31 11:34:21;;;;;;;3.90;2.22;;;22.40;62.50;;;;;;4967530;28;20082;-75
2021/07/31 11:36:57;;;;;;;3.47;2.28;;;22.50;61.90;;;;;;4964918;28;20342;-75
2021/07/31 11:39:23;;;;;;;3.15;2.20;;;22.40;60.10;;;;;;4968192;28;20030;-74
2021/07/31 11:41:49;;;;;;;2.67;2.22;;;22.50;62.00;;;;;;4970238;28;20026;-75
2021/07/31 11:44:32;;;;;;;4.43;2.35;;;22.40;61.60;;;;;;4965536;28;20547;-75
2021/07/31 11:46:58;;;;;;;4.75;2.15;;;22.40;61.70;;;;;;4982495;28;20023;-75
2021/07/31 11:49:27;;;;;;;3.08;2.30;;;22.40;63.10;;;;;;4970044;28;20585;-74
2021/07/31 11:51:55;;;;;;;4.45;2.65;;;22.40;59.90;;;;;;4966365;28;20030;-74
2021/07/31 11:54:21;;;;;;;6.00;2.22;;;22.30;62.70;;;;;;4968157;28;20033;-74
2021/07/31 11:56:48;;;;;;;2.72;2.20;;;22.30;61.40;;;;;;4966991;28;20027;-75
2021/07/31 11:59:35;;;;;;;3.47;2.20;;;22.30;62.00;;;;;;4962803;28;20142;-75
2021/07/31 12:02:01;;;;;;;4.70;2.35;;;22.30;63.40;;;;;;4969744;28;20438;-74
2021/07/31 12:04:44;;;;;;;3.60;2.03;;;22.30;60.30;;;;;;4969057;28;20033;-73
2021/07/31 12:07:13;;;;;;;2.60;1.90;;;22.30;62.40;;;;;;4970024;28;20039;-73
2021/07/31 12:09:41;;;;;;;4.82;2.15;;;22.20;60.80;;;;;;4974084;28;20579;-74
2021/07/31 12:12:26;;;;;;;4.03;1.90;;;22.20;59.30;;;;;;4960563;28;20050;-74
2021/07/31 12:15:15;;;;;;;2.88;1.90;;;22.20;62.30;;;;;;4964631;28;20065;-75
2021/07/31 12:17:53;;;;;;;3.17;2.10;;;22.20;61.00;;;;;;4961484;28;20035;-75
2021/07/31 12:20:39;;;;;;;2.70;2.15;;;22.20;61.30;;;;;;4964540;28;20042;-76
2021/07/31 12:23:06;;;;;;;2.28;1.63;;;22.10;62.30;;;;;;4965195;28;20059;-76
2021/07/31 12:25:34;;;;;;;3.80;2.22;;;22.10;60.00;;;;;;4959819;28;20042;-75
2021/07/31 12:28:22;;;;;;;1.92;1.70;;;22.10;62.00;;;;;;4966109;28;20696;-75
2021/07/31 12:30:50;;;;;;;3.45;2.22;;;22.10;61.40;;;;;;4963840;28;20039;-76
2021/07/31 12:33:20;;;;;;;3.83;2.25;;;22.10;63.00;;;;;;4962229;28;20051;-75
2021/07/31 12:35:59;;;;;;;2.58;1.77;;;22.10;61.70;;;;;;4966398;28;20117;-76
2021/07/31 12:38:27;;;;;;;2.72;1.88;;;22.10;61.30;;;;;;4960420;28;20038;-75
2021/07/31 12:40:55;;;;;;;2.22;2.03;;;22.10;61.00;;;;;;4962883;28;20030;-76
2021/07/31 12:43:23;;;;;;;13.07;2.83;;;22.20;62.40;;;;;;4960365;28;20089;-76
2021/07/31 12:45:51;;;;;;;3.67;2.30;;;22.10;61.60;;;;;;4969101;28;20038;-74
2021/07/31 12:48:17;;;;;;;;;;;22.20;62.70;;;;;;4958321;28;20313;-77
2021/07/31 12:50:43;;;;;;;2.72;2.08;;;22.10;62.60;;;;;;4965374;28;19913;-77
2021/07/31 12:53:10;;;;;;;6.43;2.05;;;22.20;61.60;;;;;;4961581;28;20034;-77